Terminal Aerodrome Forecast
Issued by NWS

Home | Current Version | Previous Version | Text Only | Print | Product List | Glossary On
Versions: 1 2 3 4 5 6 7 8 9 10 11 12 13 14 15 16 17 18 19 20 21 22 23 24 25 26
962
FTUS45 KGJT 211125
TAFRIL
TAF
KRIL 211125Z 2112/2212 23003KT P6SM OVC045
     FM211800 32003KT P6SM SCT050 BKN100
     FM212200 25004KT P6SM FEW070 SCT200=

USA.gov is the U.S. government's official web portal to all federal, state and local government web resources and services.